createdAt,value
2022-12-18T00:01:32.118Z,60.45
2022-12-18T00:03:59.092Z,53.58
2022-12-18T00:06:27.542Z,54.73
2022-12-18T00:08:55.650Z,56.55
2022-12-18T00:11:24.433Z,65.50
2022-12-18T00:13:51.789Z,54.45
2022-12-18T00:16:22.933Z,56.20
2022-12-18T00:18:51.405Z,65.10
2022-12-18T00:21:18.751Z,62.42
2022-12-18T00:23:46.681Z,55.27
2022-12-18T00:26:19.123Z,55.42
2022-12-18T00:28:46.589Z,58.25
2022-12-18T00:31:16.504Z,52.25
2022-12-18T00:33:43.761Z,54.97
2022-12-18T00:36:12.732Z,65.28
2022-12-18T00:38:39.778Z,56.65
2022-12-18T00:41:08.428Z,60.40
2022-12-18T00:43:35.928Z,75.10
2022-12-18T00:46:02.994Z,52.17
2022-12-18T00:48:29.965Z,59.17
2022-12-18T00:50:56.729Z,58.17
2022-12-18T00:53:23.318Z,67.03
2022-12-18T00:55:49.869Z,54.03
2022-12-18T00:58:17.811Z,58.40
2022-12-18T01:00:44.641Z,59.88
2022-12-18T01:03:14.504Z,81.73
2022-12-18T01:05:42.302Z,56.42
2022-12-18T01:08:08.944Z,58.92
2022-12-18T01:10:35.567Z,61.90
2022-12-18T01:13:02.223Z,57.37
2022-12-18T01:15:28.845Z,68.93
2022-12-18T01:17:55.461Z,68.63
2022-12-18T01:20:22.092Z,66.80
2022-12-18T01:22:48.761Z,59.83
2022-12-18T01:25:15.385Z,61.65
2022-12-18T01:27:41.978Z,55.92
2022-12-18T01:30:08.986Z,61.70
2022-12-18T01:32:35.687Z,58.97
2022-12-18T01:35:02.805Z,54.88
2022-12-18T01:37:29.437Z,65.07
2022-12-18T01:39:56.447Z,55.25
2022-12-18T01:42:23.334Z,60.00
2022-12-18T01:45:14.770Z,56.97
2022-12-18T01:47:48.429Z,62.93
2022-12-18T01:50:25.535Z,55.45
2022-12-18T01:53:00.461Z,62.83
2022-12-18T01:55:30.305Z,62.47
2022-12-18T01:58:00.312Z,55.85
2022-12-18T02:00:27.748Z,58.75
2022-12-18T02:02:54.952Z,59.70
2022-12-18T02:05:53.785Z,58.07
2022-12-18T02:08:27.659Z,60.78
2022-12-18T02:11:03.053Z,60.97
2022-12-18T02:14:01.910Z,55.65
2022-12-18T02:16:52.353Z,58.67
2022-12-18T02:19:44.342Z,55.40
2022-12-18T02:22:29.001Z,57.67
2022-12-18T02:25:30.149Z,54.23
2022-12-18T02:28:01.255Z,49.47
2022-12-18T02:30:32.840Z,56.22
2022-12-18T02:33:02.047Z,56.03
2022-12-18T02:35:31.430Z,51.42
2022-12-18T02:37:59.063Z,56.95
2022-12-18T02:40:28.215Z,57.95
2022-12-18T02:42:55.194Z,49.80
2022-12-18T02:45:21.798Z,54.78
2022-12-18T02:47:50.590Z,54.78
2022-12-18T02:50:20.105Z,51.40
2022-12-18T02:53:07.138Z,49.10
2022-12-18T02:55:45.943Z,52.70
2022-12-18T02:58:19.414Z,49.45
2022-12-18T03:00:54.631Z,46.10
2022-12-18T03:03:31.015Z,54.65
2022-12-18T03:06:11.763Z,49.33
2022-12-18T03:08:45.190Z,51.47
2022-12-18T03:11:14.289Z,48.03
2022-12-18T03:13:51.757Z,48.35
2022-12-18T03:16:27.220Z,50.38
2022-12-18T03:18:59.572Z,46.42
2022-12-18T03:21:34.822Z,51.67
2022-12-18T03:24:04.567Z,50.30
2022-12-18T03:26:32.205Z,44.63
2022-12-18T03:29:07.224Z,48.10
2022-12-18T03:31:43.546Z,50.88
2022-12-18T03:34:26.298Z,52.27
2022-12-18T03:36:52.961Z,48.45
2022-12-18T03:39:20.294Z,50.50
2022-12-18T03:41:55.213Z,48.13
2022-12-18T03:44:32.796Z,47.72
2022-12-18T03:47:15.357Z,45.08
2022-12-18T03:49:52.123Z,47.03
2022-12-18T03:52:33.532Z,55.67
2022-12-18T03:55:01.951Z,48.88
2022-12-18T03:57:32.114Z,53.80
2022-12-18T04:00:04.416Z,46.70
2022-12-18T04:02:32.762Z,51.38
2022-12-18T04:05:02.649Z,44.47
2022-12-18T04:07:29.710Z,45.60
2022-12-18T04:09:59.445Z,45.88
2022-12-18T04:12:27.394Z,38.58
2022-12-18T04:14:53.988Z,45.15
2022-12-18T04:17:20.869Z,44.00
2022-12-18T04:19:47.444Z,44.42
2022-12-18T04:22:14.318Z,37.47
2022-12-18T04:24:40.956Z,44.83
2022-12-18T04:27:07.931Z,47.33
2022-12-18T04:29:34.684Z,50.30
2022-12-18T04:32:01.237Z,40.78
2022-12-18T04:34:28.250Z,46.08
2022-12-18T04:36:54.818Z,46.90
2022-12-18T04:39:21.449Z,39.78
2022-12-18T04:41:48.003Z,36.60
2022-12-18T04:44:14.865Z,40.80
2022-12-18T04:46:41.612Z,40.03
2022-12-18T04:49:08.413Z,34.37
2022-12-18T04:51:35.033Z,37.83
2022-12-18T04:54:01.637Z,35.75
2022-12-18T04:56:28.206Z,42.45
2022-12-18T04:58:54.846Z,38.95
2022-12-18T05:01:21.953Z,36.08
2022-12-18T05:03:48.874Z,38.28
2022-12-18T05:06:15.710Z,35.97
2022-12-18T05:08:42.321Z,32.60
2022-12-18T05:11:11.976Z,36.20
2022-12-18T05:13:39.762Z,36.20
2022-12-18T05:16:07.448Z,34.25
2022-12-18T05:18:34.918Z,34.42
2022-12-18T05:21:01.853Z,34.13
2022-12-18T05:23:28.678Z,32.70
2022-12-18T05:26:03.598Z,34.35
2022-12-18T05:28:31.563Z,31.92
2022-12-18T05:31:01.560Z,33.40
2022-12-18T05:33:32.163Z,30.55
2022-12-18T05:36:04.205Z,31.83
2022-12-18T05:38:31.965Z,28.83
2022-12-18T05:40:58.985Z,33.75
2022-12-18T05:43:27.220Z,32.05
2022-12-18T05:45:54.713Z,32.50
2022-12-18T05:48:22.269Z,28.45
2022-12-18T05:50:51.201Z,32.22
2022-12-18T05:53:20.282Z,31.83
2022-12-18T05:55:48.089Z,33.67
2022-12-18T05:58:15.779Z,32.47
2022-12-18T06:00:46.582Z,32.45
2022-12-18T06:03:14.464Z,31.43
2022-12-18T06:05:43.572Z,26.42
2022-12-18T06:08:11.466Z,31.85
2022-12-18T06:10:38.680Z,32.17
2022-12-18T06:13:06.118Z,29.25
2022-12-18T06:15:32.864Z,30.35
2022-12-18T06:18:01.122Z,27.70
2022-12-18T06:20:33.102Z,24.93
2022-12-18T06:23:00.493Z,28.83
2022-12-18T06:25:27.136Z,24.17
2022-12-18T06:27:53.708Z,25.70
2022-12-18T06:30:20.447Z,27.17
2022-12-18T06:32:51.803Z,26.30
2022-12-18T06:35:23.265Z,24.98
2022-12-18T06:37:50.039Z,25.23
2022-12-18T06:40:17.458Z,26.80
2022-12-18T06:42:44.041Z,29.35
2022-12-18T06:45:11.006Z,25.13
2022-12-18T06:47:37.613Z,24.08
2022-12-18T06:50:04.491Z,25.35
2022-12-18T06:52:33.281Z,27.57
2022-12-18T06:55:01.385Z,22.55
2022-12-18T06:57:27.994Z,23.92
2022-12-18T06:59:54.617Z,25.85
2022-12-18T07:02:21.320Z,23.58
2022-12-18T07:04:51.110Z,25.60
2022-12-18T07:07:18.149Z,24.88
2022-12-18T07:09:44.866Z,22.37
2022-12-18T07:12:11.453Z,26.20
2022-12-18T07:14:38.065Z,25.52
2022-12-18T07:17:04.699Z,22.80
2022-12-18T07:19:33.129Z,24.08
2022-12-18T07:21:59.721Z,30.00
2022-12-18T07:24:26.361Z,26.63
2022-12-18T07:26:52.931Z,21.73
2022-12-18T07:29:19.539Z,21.25
2022-12-18T07:31:46.161Z,20.90
2022-12-18T07:34:14.075Z,23.63
2022-12-18T07:36:41.306Z,21.95
2022-12-18T07:39:08.048Z,20.20
2022-12-18T07:41:34.956Z,23.17
2022-12-18T07:44:01.517Z,22.90
2022-12-18T07:46:28.077Z,26.42
2022-12-18T07:48:54.737Z,21.25
2022-12-18T07:51:57.520Z,19.08
2022-12-18T07:54:25.754Z,24.77
2022-12-18T07:56:52.880Z,18.90
2022-12-18T07:59:19.985Z,22.40
2022-12-18T08:01:47.463Z,27.30
2022-12-18T08:04:15.316Z,20.30
2022-12-18T08:07:20.244Z,23.97
2022-12-18T08:09:50.263Z,22.23
2022-12-18T08:13:06.851Z,19.77
2022-12-18T08:16:04.813Z,23.05
2022-12-18T08:18:36.936Z,21.08
2022-12-18T08:21:36.583Z,21.10
2022-12-18T08:27:28.919Z,19.37
2022-12-18T08:29:57.300Z,23.38
2022-12-18T08:32:45.769Z,21.15
2022-12-18T09:03:44.711Z,18.58
2022-12-18T09:14:09.290Z,19.67
2022-12-18T09:37:13.166Z,22.60
2022-12-18T09:58:59.924Z,21.70
2022-12-18T10:01:41.573Z,20.48
2022-12-18T10:10:47.619Z,20.33
2022-12-18T10:29:08.813Z,16.52
2022-12-18T10:32:59.726Z,22.50
2022-12-18T11:03:47.578Z,19.80
2022-12-18T11:52:33.970Z,17.23
2022-12-18T11:55:21.682Z,19.50
2022-12-18T11:58:49.769Z,15.20
2022-12-18T12:02:30.722Z,16.10
2022-12-18T12:05:42.873Z,17.92
2022-12-18T12:08:41.371Z,18.73
2022-12-18T12:11:26.610Z,16.47
2022-12-18T12:14:20.471Z,16.27
2022-12-18T12:17:29.121Z,16.60
2022-12-18T12:27:20.867Z,16.75
2022-12-18T12:30:19.121Z,15.57
2022-12-18T12:33:36.621Z,18.40
2022-12-18T12:36:39.284Z,15.40
2022-12-18T12:39:38.692Z,15.82
2022-12-18T12:45:53.097Z,17.20
2022-12-18T12:52:09.957Z,14.98
2022-12-18T12:58:01.288Z,15.85
2022-12-18T13:00:58.369Z,17.80
2022-12-18T13:03:54.112Z,18.13
2022-12-18T13:07:01.591Z,17.15
2022-12-18T13:16:26.605Z,17.03
2022-12-18T13:19:04.533Z,20.17
2022-12-18T13:24:33.830Z,17.23
2022-12-18T13:34:50.787Z,17.67
2022-12-18T13:37:36.246Z,18.73
2022-12-18T13:40:45.985Z,17.63
2022-12-18T13:43:29.458Z,19.27
2022-12-18T13:46:28.290Z,17.35
2022-12-18T13:49:46.960Z,17.80
2022-12-18T13:52:19.058Z,19.75
2022-12-18T13:54:53.597Z,19.92
2022-12-18T13:57:35.076Z,16.80
2022-12-18T14:00:23.142Z,17.42
2022-12-18T14:02:51.664Z,17.90
2022-12-18T14:05:33.461Z,18.30
2022-12-18T14:08:05.773Z,17.93
2022-12-18T14:10:42.261Z,19.48
2022-12-18T14:13:21.075Z,16.63
2022-12-18T14:15:49.709Z,19.42
2022-12-18T14:18:26.739Z,17.38
2022-12-18T14:20:56.253Z,19.20
2022-12-18T14:23:27.171Z,19.75
2022-12-18T14:25:53.769Z,17.75
2022-12-18T14:28:22.662Z,18.67
2022-12-18T14:30:49.398Z,17.10
2022-12-18T14:33:22.414Z,15.57
2022-12-18T14:36:03.700Z,19.75
2022-12-18T14:38:37.400Z,19.17
2022-12-18T14:41:12.384Z,20.63
2022-12-18T14:43:41.756Z,17.07
2022-12-18T14:46:44.249Z,18.98
2022-12-18T14:49:30.103Z,18.63
2022-12-18T14:52:02.082Z,18.23
2022-12-18T14:54:30.539Z,19.08
2022-12-18T14:57:04.489Z,19.17
2022-12-18T14:59:32.226Z,19.55
2022-12-18T15:02:04.068Z,21.42
2022-12-18T15:04:36.730Z,18.80
2022-12-18T15:07:13.455Z,16.13
2022-12-18T15:09:42.003Z,20.27
2022-12-18T15:13:01.414Z,17.45
2022-12-18T15:15:34.238Z,18.60
2022-12-18T15:18:02.359Z,17.05
2022-12-18T15:20:32.313Z,18.48
2022-12-18T15:22:58.897Z,18.47
2022-12-18T15:25:33.871Z,16.02
2022-12-18T15:28:00.527Z,21.90
2022-12-18T15:30:27.489Z,20.60
2022-12-18T15:33:17.877Z,18.23
2022-12-18T15:35:47.096Z,20.03
2022-12-18T15:38:13.972Z,21.23
2022-12-18T15:40:40.666Z,21.10
2022-12-18T15:43:28.522Z,20.70
2022-12-18T15:45:55.123Z,22.48
2022-12-18T15:48:23.557Z,21.77
2022-12-18T15:50:57.556Z,22.02
2022-12-18T15:53:26.176Z,20.33
2022-12-18T15:56:11.512Z,23.85
2022-12-18T15:58:38.864Z,21.03
2022-12-18T16:01:05.639Z,21.00
2022-12-18T16:03:32.292Z,22.77
2022-12-18T16:06:01.185Z,20.23
2022-12-18T16:08:30.792Z,20.80
2022-12-18T16:10:58.844Z,21.53
2022-12-18T16:13:25.442Z,17.77
2022-12-18T16:15:52.241Z,22.67
2022-12-18T16:18:18.914Z,22.45
2022-12-18T16:20:45.705Z,22.90
2022-12-18T16:23:12.345Z,22.90
2022-12-18T16:25:38.944Z,22.23
2022-12-18T16:28:05.612Z,19.92
2022-12-18T16:30:38.060Z,23.25
2022-12-18T16:33:05.496Z,25.08
2022-12-18T16:35:34.364Z,23.90
2022-12-18T16:38:00.962Z,25.75
2022-12-18T16:40:27.632Z,23.20
2022-12-18T16:42:54.277Z,23.13
2022-12-18T16:45:21.058Z,24.17
2022-12-18T16:47:47.675Z,23.25
2022-12-18T16:50:14.584Z,23.70
2022-12-18T16:52:41.539Z,22.17
2022-12-18T16:55:09.136Z,21.77
2022-12-18T16:57:35.934Z,26.98
2022-12-18T17:00:05.553Z,27.52
2022-12-18T17:02:33.296Z,20.42
2022-12-18T17:05:00.283Z,20.95
2022-12-18T17:07:28.414Z,24.23
2022-12-18T17:09:55.811Z,23.15
2022-12-18T17:12:22.790Z,21.67
2022-12-18T17:14:49.411Z,22.30
2022-12-18T17:17:24.109Z,22.85
2022-12-18T17:19:52.050Z,26.13
2022-12-18T17:22:19.061Z,22.85
2022-12-18T17:24:46.921Z,23.23
2022-12-18T17:27:13.612Z,20.42
2022-12-18T17:29:46.886Z,25.10
2022-12-18T17:32:14.993Z,26.87
2022-12-18T17:34:41.765Z,27.80
2022-12-18T17:37:08.793Z,24.30
2022-12-18T17:39:35.454Z,27.95
2022-12-18T17:42:02.004Z,25.43
2022-12-18T17:44:28.665Z,24.48
2022-12-18T17:46:55.532Z,23.55
2022-12-18T17:49:22.198Z,21.65
2022-12-18T17:51:48.981Z,25.70
2022-12-18T17:54:15.674Z,26.40
2022-12-18T17:56:42.254Z,25.83
2022-12-18T17:59:09.515Z,25.73
2022-12-18T18:01:42.421Z,22.83
2022-12-18T18:04:10.643Z,24.23
2022-12-18T18:06:38.946Z,23.52
2022-12-18T18:09:06.579Z,24.85
2022-12-18T18:12:00.367Z,24.60
2022-12-18T18:14:27.445Z,26.45
2022-12-18T18:16:54.638Z,24.67
2022-12-18T18:19:24.313Z,28.40
2022-12-18T18:21:53.462Z,28.63
2022-12-18T18:24:23.488Z,28.20
2022-12-18T18:26:50.457Z,29.55
2022-12-18T18:29:23.892Z,25.47
2022-12-18T18:31:53.286Z,24.63
2022-12-18T18:34:25.432Z,27.23
2022-12-18T18:36:52.129Z,24.50
2022-12-18T18:39:19.578Z,23.60
2022-12-18T18:41:48.357Z,24.63
2022-12-18T18:44:16.685Z,31.08
2022-12-18T18:46:43.542Z,27.27
2022-12-18T18:49:10.317Z,23.52
2022-12-18T18:51:37.071Z,28.52
2022-12-18T18:54:03.844Z,27.43
2022-12-18T18:59:18.146Z,26.33
2022-12-18T19:01:45.051Z,22.92
2022-12-18T19:04:12.273Z,26.70
2022-12-18T19:06:39.630Z,30.80
2022-12-18T19:09:07.404Z,25.88
2022-12-18T19:11:53.133Z,28.13
2022-12-18T19:14:20.214Z,24.65
2022-12-18T19:16:46.941Z,24.50
2022-12-18T19:19:13.724Z,25.30
2022-12-18T19:21:40.853Z,25.58
2022-12-18T19:24:07.841Z,29.48
2022-12-18T19:26:36.265Z,26.98
2022-12-18T19:29:08.322Z,27.40
2022-12-18T19:31:36.785Z,24.10
2022-12-18T19:34:06.582Z,26.65
2022-12-18T19:36:35.210Z,23.92
2022-12-18T19:39:07.124Z,26.95
2022-12-18T19:41:33.995Z,25.95
2022-12-18T19:44:07.837Z,21.03
2022-12-18T19:46:35.696Z,27.80
2022-12-18T19:49:03.083Z,22.23
2022-12-18T19:51:31.279Z,27.20
2022-12-18T19:54:01.265Z,27.00
2022-12-18T19:56:30.799Z,27.33
2022-12-18T19:58:57.647Z,20.20
2022-12-18T20:01:26.435Z,25.38
2022-12-18T20:03:55.927Z,29.50
2022-12-18T20:06:47.471Z,25.65
2022-12-18T20:09:14.162Z,29.27
2022-12-18T20:11:42.235Z,30.90
2022-12-18T20:14:14.318Z,28.95
2022-12-18T20:16:43.445Z,27.60
2022-12-18T20:19:12.690Z,28.75
2022-12-18T20:21:40.106Z,33.00
2022-12-18T20:24:08.205Z,30.08
2022-12-18T20:26:35.002Z,28.25
2022-12-18T20:29:01.587Z,30.92
2022-12-18T20:31:28.244Z,28.70
2022-12-18T20:33:59.717Z,30.50
2022-12-18T20:36:29.419Z,29.17
2022-12-18T20:38:58.139Z,26.40
2022-12-18T20:41:38.447Z,26.00
2022-12-18T20:44:21.812Z,32.17
2022-12-18T20:46:52.350Z,31.80
2022-12-18T20:49:18.992Z,31.42
2022-12-18T20:51:45.819Z,28.58
2022-12-18T20:54:12.378Z,32.80
2022-12-18T20:56:38.957Z,33.63
2022-12-18T20:59:05.674Z,20.33
2022-12-18T21:01:32.345Z,30.08
2022-12-18T21:03:59.221Z,31.38
2022-12-18T21:06:26.421Z,33.42
2022-12-18T21:08:53.051Z,24.58
2022-12-18T21:11:38.102Z,27.03
2022-12-18T21:14:09.719Z,31.73
2022-12-18T21:16:36.830Z,34.58
2022-12-18T21:19:03.701Z,32.22
2022-12-18T21:21:30.315Z,31.95
2022-12-18T21:24:01.703Z,34.23
2022-12-18T21:26:28.989Z,27.58
2022-12-18T21:28:57.982Z,28.67
2022-12-18T21:31:27.537Z,37.78
2022-12-18T21:33:55.271Z,34.90
2022-12-18T21:36:29.229Z,33.17
2022-12-18T21:38:56.709Z,34.95
2022-12-18T21:41:42.908Z,33.08
2022-12-18T21:44:12.757Z,33.25
2022-12-18T21:46:42.274Z,32.00
2022-12-18T21:49:10.596Z,33.73
2022-12-18T21:51:37.579Z,27.52
2022-12-18T21:54:05.146Z,37.83
2022-12-18T21:56:51.206Z,34.55
2022-12-18T21:59:23.715Z,35.70
2022-12-18T22:01:52.079Z,31.87
2022-12-18T22:04:19.784Z,32.45
2022-12-18T22:06:48.342Z,34.67
2022-12-18T22:09:17.391Z,34.58
2022-12-18T22:11:44.438Z,33.13
2022-12-18T22:14:11.416Z,35.57
2022-12-18T22:16:37.978Z,34.13
2022-12-18T22:19:05.257Z,36.83
2022-12-18T22:21:34.477Z,38.75
2022-12-18T22:24:03.122Z,28.50
2022-12-18T22:26:36.501Z,35.50
2022-12-18T22:29:26.168Z,34.95
2022-12-18T22:31:52.771Z,34.47
2022-12-18T22:34:22.769Z,40.00
2022-12-18T22:36:50.650Z,36.05
2022-12-18T22:39:23.013Z,36.07
2022-12-18T22:41:49.687Z,31.20
2022-12-18T22:44:17.513Z,34.38
2022-12-18T22:46:51.398Z,37.25
2022-12-18T22:49:32.444Z,34.90
2022-12-18T22:52:00.530Z,35.13
2022-12-18T22:54:27.104Z,35.72
2022-12-18T22:56:53.711Z,36.45
2022-12-18T22:59:23.218Z,35.70
2022-12-18T23:01:51.488Z,30.98
2022-12-18T23:04:28.467Z,37.47
2022-12-18T23:07:00.046Z,37.67
2022-12-18T23:09:26.625Z,34.58
2022-12-18T23:11:53.356Z,42.15
2022-12-18T23:14:20.499Z,36.15
2022-12-18T23:16:47.064Z,36.27
2022-12-18T23:19:15.765Z,42.28
2022-12-18T23:21:42.325Z,36.75
2022-12-18T23:24:09.409Z,29.50
2022-12-18T23:26:36.486Z,36.83
2022-12-18T23:29:03.754Z,34.27
2022-12-18T23:31:38.913Z,39.85
2022-12-18T23:34:07.125Z,39.03
2022-12-18T23:36:42.032Z,33.55
2022-12-18T23:39:29.124Z,40.38
2022-12-18T23:41:58.609Z,37.37
2022-12-18T23:44:25.445Z,34.97
2022-12-18T23:46:52.686Z,33.25
2022-12-18T23:49:19.304Z,39.03
2022-12-18T23:51:45.909Z,35.38
2022-12-18T23:54:12.482Z,38.77
2022-12-18T23:56:39.088Z,36.25
2022-12-18T23:59:05.661Z,39.88
